sensor_id;sensor_type;location;lat;lon;timestamp;P1;durP1;ratioP1;P2;durP2;ratioP2
77868;SDS011;67231;59.144;37.934;2023-07-16T00:01:15;13.35;;;7.15;;
77868;SDS011;67231;59.144;37.934;2023-07-16T00:03:42;11.10;;;7.22;;
77868;SDS011;67231;59.144;37.934;2023-07-16T00:06:08;10.23;;;7.05;;
77868;SDS011;67231;59.144;37.934;2023-07-16T00:08:34;14.05;;;7.57;;
77868;SDS011;67231;59.144;37.934;2023-07-16T00:11:02;11.77;;;7.70;;
77868;SDS011;67231;59.144;37.934;2023-07-16T00:13:29;10.23;;;7.57;;
77868;SDS011;67231;59.144;37.934;2023-07-16T00:15:55;10.27;;;7.32;;
77868;SDS011;67231;59.144;37.934;2023-07-16T00:18:22;12.75;;;7.70;;
77868;SDS011;67231;59.144;37.934;2023-07-16T00:20:48;12.18;;;7.30;;
77868;SDS011;67231;59.144;37.934;2023-07-16T00:23:14;10.10;;;6.32;;
77868;SDS011;67231;59.144;37.934;2023-07-16T00:25:41;14.60;;;7.10;;
77868;SDS011;67231;59.144;37.934;2023-07-16T00:28:07;11.75;;;7.32;;
77868;SDS011;67231;59.144;37.934;2023-07-16T00:30:34;11.23;;;7.25;;
77868;SDS011;67231;59.144;37.934;2023-07-16T00:33:00;10.52;;;6.93;;
77868;SDS011;67231;59.144;37.934;2023-07-16T00:35:26;10.52;;;7.07;;
77868;SDS011;67231;59.144;37.934;2023-07-16T00:37:53;10.85;;;7.30;;
77868;SDS011;67231;59.144;37.934;2023-07-16T00:40:19;10.75;;;6.97;;
77868;SDS011;67231;59.144;37.934;2023-07-16T00:42:45;12.60;;;7.57;;
77868;SDS011;67231;59.144;37.934;2023-07-16T00:45:12;11.30;;;7.38;;
77868;SDS011;67231;59.144;37.934;2023-07-16T00:47:40;10.98;;;6.70;;
77868;SDS011;67231;59.144;37.934;2023-07-16T00:50:10;9.25;;;6.28;;
77868;SDS011;67231;59.144;37.934;2023-07-16T00:52:38;10.95;;;6.88;;
77868;SDS011;67231;59.144;37.934;2023-07-16T00:55:06;11.57;;;6.85;;
77868;SDS011;67231;59.144;37.934;2023-07-16T00:57:33;9.02;;;6.68;;
77868;SDS011;67231;59.144;37.934;2023-07-16T00:59:59;10.13;;;6.28;;
77868;SDS011;67231;59.144;37.934;2023-07-16T01:02:26;9.10;;;6.45;;
77868;SDS011;67231;59.144;37.934;2023-07-16T01:04:53;12.25;;;6.75;;
77868;SDS011;67231;59.144;37.934;2023-07-16T01:07:20;8.75;;;6.65;;
77868;SDS011;67231;59.144;37.934;2023-07-16T01:09:51;9.20;;;6.47;;
77868;SDS011;67231;59.144;37.934;2023-07-16T01:12:21;7.95;;;6.15;;
77868;SDS011;67231;59.144;37.934;2023-07-16T01:14:49;9.32;;;6.55;;
77868;SDS011;67231;59.144;37.934;2023-07-16T01:17:17;11.38;;;6.43;;
77868;SDS011;67231;59.144;37.934;2023-07-16T01:19:43;10.20;;;6.32;;
77868;SDS011;67231;59.144;37.934;2023-07-16T01:22:25;10.23;;;6.47;;
77868;SDS011;67231;59.144;37.934;2023-07-16T01:25:19;9.43;;;6.28;;
77868;SDS011;67231;59.144;37.934;2023-07-16T01:28:08;9.95;;;6.55;;
77868;SDS011;67231;59.144;37.934;2023-07-16T01:30:37;10.20;;;6.25;;
77868;SDS011;67231;59.144;37.934;2023-07-16T01:33:06;9.27;;;5.72;;
77868;SDS011;67231;59.144;37.934;2023-07-16T01:35:36;10.27;;;6.25;;
77868;SDS011;67231;59.144;37.934;2023-07-16T01:38:04;9.63;;;6.20;;
77868;SDS011;67231;59.144;37.934;2023-07-16T01:40:30;10.02;;;5.80;;
77868;SDS011;67231;59.144;37.934;2023-07-16T01:42:57;10.85;;;6.13;;
77868;SDS011;67231;59.144;37.934;2023-07-16T01:45:24;7.88;;;5.57;;
77868;SDS011;67231;59.144;37.934;2023-07-16T01:50:42;11.13;;;5.50;;
77868;SDS011;67231;59.144;37.934;2023-07-16T01:53:08;8.57;;;5.60;;
77868;SDS011;67231;59.144;37.934;2023-07-16T01:55:35;10.05;;;5.65;;
77868;SDS011;67231;59.144;37.934;2023-07-16T01:58:01;7.45;;;5.10;;
77868;SDS011;67231;59.144;37.934;2023-07-16T02:00:28;9.32;;;5.60;;
77868;SDS011;67231;59.144;37.934;2023-07-16T02:02:54;7.00;;;5.30;;
77868;SDS011;67231;59.144;37.934;2023-07-16T02:05:21;8.02;;;5.22;;
77868;SDS011;67231;59.144;37.934;2023-07-16T02:07:47;8.15;;;5.10;;
77868;SDS011;67231;59.144;37.934;2023-07-16T02:10:13;6.93;;;4.90;;
77868;SDS011;67231;59.144;37.934;2023-07-16T02:12:40;8.95;;;4.95;;
77868;SDS011;67231;59.144;37.934;2023-07-16T02:15:06;8.75;;;5.07;;
77868;SDS011;67231;59.144;37.934;2023-07-16T02:17:37;6.00;;;4.82;;
77868;SDS011;67231;59.144;37.934;2023-07-16T02:20:03;7.32;;;5.03;;
77868;SDS011;67231;59.144;37.934;2023-07-16T02:22:34;9.00;;;5.80;;
77868;SDS011;67231;59.144;37.934;2023-07-16T02:25:01;7.90;;;5.78;;
77868;SDS011;67231;59.144;37.934;2023-07-16T02:27:30;9.90;;;6.00;;
77868;SDS011;67231;59.144;37.934;2023-07-16T02:29:56;7.65;;;5.55;;
77868;SDS011;67231;59.144;37.934;2023-07-16T02:32:23;7.00;;;5.00;;
77868;SDS011;67231;59.144;37.934;2023-07-16T02:34:49;7.88;;;4.60;;
77868;SDS011;67231;59.144;37.934;2023-07-16T02:37:16;7.75;;;4.78;;
77868;SDS011;67231;59.144;37.934;2023-07-16T02:39:44;6.43;;;5.25;;
77868;SDS011;67231;59.144;37.934;2023-07-16T02:42:14;7.60;;;4.90;;
77868;SDS011;67231;59.144;37.934;2023-07-16T02:44:41;6.82;;;5.10;;
77868;SDS011;67231;59.144;37.934;2023-07-16T02:47:11;7.35;;;5.30;;
77868;SDS011;67231;59.144;37.934;2023-07-16T02:49:37;7.95;;;5.30;;
77868;SDS011;67231;59.144;37.934;2023-07-16T02:52:04;8.05;;;5.03;;
77868;SDS011;67231;59.144;37.934;2023-07-16T02:54:32;8.13;;;5.07;;
77868;SDS011;67231;59.144;37.934;2023-07-16T02:56:58;6.95;;;5.20;;
77868;SDS011;67231;59.144;37.934;2023-07-16T02:59:25;6.95;;;4.63;;
77868;SDS011;67231;59.144;37.934;2023-07-16T03:01:51;7.28;;;4.72;;
77868;SDS011;67231;59.144;37.934;2023-07-16T03:04:17;6.38;;;4.97;;
77868;SDS011;67231;59.144;37.934;2023-07-16T03:06:44;7.00;;;4.93;;
77868;SDS011;67231;59.144;37.934;2023-07-16T03:09:10;7.53;;;4.80;;
77868;SDS011;67231;59.144;37.934;2023-07-16T03:11:37;6.82;;;4.78;;
77868;SDS011;67231;59.144;37.934;2023-07-16T03:14:03;8.05;;;5.20;;
77868;SDS011;67231;59.144;37.934;2023-07-16T03:16:29;6.88;;;4.57;;
77868;SDS011;67231;59.144;37.934;2023-07-16T03:18:56;6.85;;;4.85;;
77868;SDS011;67231;59.144;37.934;2023-07-16T03:21:22;9.88;;;5.15;;
77868;SDS011;67231;59.144;37.934;2023-07-16T03:23:48;8.80;;;5.00;;
77868;SDS011;67231;59.144;37.934;2023-07-16T03:26:15;8.77;;;5.50;;
77868;SDS011;67231;59.144;37.934;2023-07-16T03:28:41;8.68;;;5.18;;
77868;SDS011;67231;59.144;37.934;2023-07-16T03:31:10;8.23;;;5.38;;
77868;SDS011;67231;59.144;37.934;2023-07-16T03:33:39;9.77;;;5.47;;
77868;SDS011;67231;59.144;37.934;2023-07-16T03:36:07;8.00;;;5.55;;
77868;SDS011;67231;59.144;37.934;2023-07-16T03:38:33;7.35;;;5.03;;
77868;SDS011;67231;59.144;37.934;2023-07-16T03:41:00;6.15;;;5.40;;
77868;SDS011;67231;59.144;37.934;2023-07-16T03:43:27;10.25;;;6.72;;
77868;SDS011;67231;59.144;37.934;2023-07-16T03:46:00;7.38;;;4.90;;
77868;SDS011;67231;59.144;37.934;2023-07-16T03:48:26;7.25;;;4.75;;
77868;SDS011;67231;59.144;37.934;2023-07-16T03:50:52;7.53;;;5.10;;
77868;SDS011;67231;59.144;37.934;2023-07-16T03:53:20;6.65;;;4.95;;
77868;SDS011;67231;59.144;37.934;2023-07-16T03:55:46;7.10;;;5.40;;
77868;SDS011;67231;59.144;37.934;2023-07-16T03:58:13;10.13;;;5.20;;
77868;SDS011;67231;59.144;37.934;2023-07-16T04:00:40;9.48;;;5.32;;
77868;SDS011;67231;59.144;37.934;2023-07-16T04:03:07;7.25;;;4.70;;
77868;SDS011;67231;59.144;37.934;2023-07-16T04:05:33;8.20;;;5.18;;
77868;SDS011;67231;59.144;37.934;2023-07-16T04:07:59;7.40;;;5.32;;
77868;SDS011;67231;59.144;37.934;2023-07-16T04:10:25;6.35;;;5.07;;
77868;SDS011;67231;59.144;37.934;2023-07-16T04:12:52;7.88;;;4.70;;
77868;SDS011;67231;59.144;37.934;2023-07-16T04:15:18;8.80;;;4.80;;
77868;SDS011;67231;59.144;37.934;2023-07-16T04:17:44;9.85;;;4.78;;
77868;SDS011;67231;59.144;37.934;2023-07-16T04:20:11;12.70;;;5.13;;
77868;SDS011;67231;59.144;37.934;2023-07-16T04:22:37;5.93;;;5.03;;
77868;SDS011;67231;59.144;37.934;2023-07-16T04:25:03;7.22;;;4.70;;
77868;SDS011;67231;59.144;37.934;2023-07-16T04:27:30;6.03;;;4.63;;
77868;SDS011;67231;59.144;37.934;2023-07-16T04:29:57;6.53;;;4.65;;
77868;SDS011;67231;59.144;37.934;2023-07-16T04:32:23;9.35;;;4.88;;
77868;SDS011;67231;59.144;37.934;2023-07-16T04:34:50;8.38;;;4.43;;
77868;SDS011;67231;59.144;37.934;2023-07-16T04:37:16;8.57;;;4.50;;
77868;SDS011;67231;59.144;37.934;2023-07-16T04:39:42;6.03;;;4.88;;
77868;SDS011;67231;59.144;37.934;2023-07-16T04:42:08;6.35;;;4.32;;
77868;SDS011;67231;59.144;37.934;2023-07-16T04:44:35;6.35;;;4.25;;
77868;SDS011;67231;59.144;37.934;2023-07-16T04:47:01;5.30;;;4.40;;
77868;SDS011;67231;59.144;37.934;2023-07-16T04:49:27;7.90;;;4.47;;
77868;SDS011;67231;59.144;37.934;2023-07-16T04:51:54;8.50;;;4.45;;
77868;SDS011;67231;59.144;37.934;2023-07-16T04:54:20;6.32;;;4.00;;
77868;SDS011;67231;59.144;37.934;2023-07-16T04:56:46;6.90;;;3.85;;
77868;SDS011;67231;59.144;37.934;2023-07-16T04:59:12;4.85;;;3.92;;
77868;SDS011;67231;59.144;37.934;2023-07-16T05:01:39;5.28;;;4.00;;
77868;SDS011;67231;59.144;37.934;2023-07-16T05:04:05;6.72;;;4.40;;
77868;SDS011;67231;59.144;37.934;2023-07-16T05:06:31;4.93;;;3.78;;
77868;SDS011;67231;59.144;37.934;2023-07-16T05:08:57;7.50;;;4.00;;
77868;SDS011;67231;59.144;37.934;2023-07-16T05:11:24;4.93;;;3.45;;
77868;SDS011;67231;59.144;37.934;2023-07-16T05:13:51;6.00;;;3.75;;
77868;SDS011;67231;59.144;37.934;2023-07-16T05:16:17;5.28;;;4.25;;
77868;SDS011;67231;59.144;37.934;2023-07-16T05:18:44;4.97;;;3.65;;
77868;SDS011;67231;59.144;37.934;2023-07-16T05:21:10;4.57;;;3.90;;
77868;SDS011;67231;59.144;37.934;2023-07-16T05:23:36;5.63;;;3.97;;
77868;SDS011;67231;59.144;37.934;2023-07-16T05:26:02;5.70;;;3.80;;
77868;SDS011;67231;59.144;37.934;2023-07-16T05:28:29;6.47;;;3.58;;
77868;SDS011;67231;59.144;37.934;2023-07-16T05:30:59;5.13;;;3.60;;
77868;SDS011;67231;59.144;37.934;2023-07-16T05:33:28;5.78;;;3.72;;
77868;SDS011;67231;59.144;37.934;2023-07-16T05:35:55;5.35;;;3.60;;
77868;SDS011;67231;59.144;37.934;2023-07-16T05:38:21;5.07;;;3.58;;
77868;SDS011;67231;59.144;37.934;2023-07-16T05:40:47;4.20;;;3.30;;
77868;SDS011;67231;59.144;37.934;2023-07-16T05:43:14;5.85;;;3.50;;
77868;SDS011;67231;59.144;37.934;2023-07-16T05:45:40;4.65;;;3.10;;
77868;SDS011;67231;59.144;37.934;2023-07-16T05:48:07;4.40;;;3.40;;
77868;SDS011;67231;59.144;37.934;2023-07-16T05:50:33;4.30;;;3.38;;
77868;SDS011;67231;59.144;37.934;2023-07-16T05:52:59;4.60;;;3.30;;
77868;SDS011;67231;59.144;37.934;2023-07-16T05:55:29;3.72;;;2.97;;
77868;SDS011;67231;59.144;37.934;2023-07-16T05:57:55;4.68;;;3.15;;
77868;SDS011;67231;59.144;37.934;2023-07-16T06:00:22;4.03;;;2.78;;
77868;SDS011;67231;59.144;37.934;2023-07-16T06:02:48;4.07;;;2.90;;
77868;SDS011;67231;59.144;37.934;2023-07-16T06:05:14;6.22;;;2.80;;
77868;SDS011;67231;59.144;37.934;2023-07-16T06:07:41;3.20;;;2.75;;
77868;SDS011;67231;59.144;37.934;2023-07-16T06:10:07;3.20;;;2.80;;
77868;SDS011;67231;59.144;37.934;2023-07-16T06:12:34;8.50;;;3.20;;
77868;SDS011;67231;59.144;37.934;2023-07-16T06:15:00;4.05;;;2.70;;
77868;SDS011;67231;59.144;37.934;2023-07-16T06:17:27;3.30;;;2.67;;
77868;SDS011;67231;59.144;37.934;2023-07-16T06:19:54;3.80;;;2.97;;
77868;SDS011;67231;59.144;37.934;2023-07-16T06:22:21;3.25;;;2.90;;
77868;SDS011;67231;59.144;37.934;2023-07-16T06:24:47;3.30;;;2.85;;
77868;SDS011;67231;59.144;37.934;2023-07-16T06:27:14;3.30;;;3.00;;
77868;SDS011;67231;59.144;37.934;2023-07-16T06:29:40;3.40;;;2.80;;
77868;SDS011;67231;59.144;37.934;2023-07-16T06:32:07;3.03;;;2.33;;
77868;SDS011;67231;59.144;37.934;2023-07-16T06:34:34;4.63;;;2.90;;
77868;SDS011;67231;59.144;37.934;2023-07-16T06:41:42;4.55;;;2.60;;
77868;SDS011;67231;59.144;37.934;2023-07-16T06:44:08;3.90;;;2.60;;
77868;SDS011;67231;59.144;37.934;2023-07-16T06:46:35;4.00;;;2.95;;
77868;SDS011;67231;59.144;37.934;2023-07-16T06:49:01;3.67;;;2.80;;
77868;SDS011;67231;59.144;37.934;2023-07-16T06:51:28;3.80;;;2.30;;
77868;SDS011;67231;59.144;37.934;2023-07-16T06:53:57;3.55;;;2.20;;
77868;SDS011;67231;59.144;37.934;2023-07-16T06:56:23;3.95;;;2.60;;
77868;SDS011;67231;59.144;37.934;2023-07-16T06:58:49;3.10;;;2.70;;
77868;SDS011;67231;59.144;37.934;2023-07-16T07:01:16;4.38;;;2.70;;
77868;SDS011;67231;59.144;37.934;2023-07-16T07:03:42;3.72;;;2.47;;
77868;SDS011;67231;59.144;37.934;2023-07-16T07:06:09;3.42;;;2.72;;
77868;SDS011;67231;59.144;37.934;2023-07-16T07:08:36;5.43;;;2.83;;
77868;SDS011;67231;59.144;37.934;2023-07-16T07:11:03;2.92;;;2.50;;
77868;SDS011;67231;59.144;37.934;2023-07-16T07:13:30;6.28;;;2.58;;
77868;SDS011;67231;59.144;37.934;2023-07-16T07:15:57;3.58;;;2.50;;
77868;SDS011;67231;59.144;37.934;2023-07-16T07:18:23;3.13;;;2.70;;
77868;SDS011;67231;59.144;37.934;2023-07-16T07:20:49;3.38;;;2.72;;
77868;SDS011;67231;59.144;37.934;2023-07-16T07:23:17;3.83;;;2.50;;
77868;SDS011;67231;59.144;37.934;2023-07-16T07:25:43;3.97;;;2.90;;
77868;SDS011;67231;59.144;37.934;2023-07-16T07:28:15;2.83;;;2.45;;
77868;SDS011;67231;59.144;37.934;2023-07-16T07:30:42;4.25;;;2.90;;
77868;SDS011;67231;59.144;37.934;2023-07-16T07:33:08;3.35;;;2.80;;
77868;SDS011;67231;59.144;37.934;2023-07-16T07:35:34;2.83;;;2.40;;
77868;SDS011;67231;59.144;37.934;2023-07-16T07:38:01;2.85;;;2.55;;
77868;SDS011;67231;59.144;37.934;2023-07-16T07:40:27;3.25;;;2.63;;
77868;SDS011;67231;59.144;37.934;2023-07-16T07:42:53;3.83;;;2.85;;
77868;SDS011;67231;59.144;37.934;2023-07-16T07:45:20;3.50;;;2.80;;
77868;SDS011;67231;59.144;37.934;2023-07-16T07:47:46;3.22;;;2.60;;
77868;SDS011;67231;59.144;37.934;2023-07-16T07:50:12;3.00;;;2.50;;
77868;SDS011;67231;59.144;37.934;2023-07-16T07:52:38;3.72;;;2.78;;
77868;SDS011;67231;59.144;37.934;2023-07-16T07:55:05;3.67;;;2.70;;
77868;SDS011;67231;59.144;37.934;2023-07-16T07:57:31;4.22;;;2.70;;
77868;SDS011;67231;59.144;37.934;2023-07-16T07:59:58;3.28;;;2.75;;
77868;SDS011;67231;59.144;37.934;2023-07-16T08:02:25;4.40;;;2.80;;
77868;SDS011;67231;59.144;37.934;2023-07-16T08:04:52;4.28;;;3.25;;
77868;SDS011;67231;59.144;37.934;2023-07-16T08:07:22;3.70;;;2.47;;
77868;SDS011;67231;59.144;37.934;2023-07-16T08:09:49;3.50;;;2.85;;
77868;SDS011;67231;59.144;37.934;2023-07-16T08:12:15;3.83;;;2.55;;
77868;SDS011;67231;59.144;37.934;2023-07-16T08:14:42;3.47;;;2.47;;
77868;SDS011;67231;59.144;37.934;2023-07-16T08:17:08;3.45;;;2.63;;
77868;SDS011;67231;59.144;37.934;2023-07-16T08:19:34;4.22;;;2.85;;
77868;SDS011;67231;59.144;37.934;2023-07-16T08:22:01;4.43;;;2.60;;
77868;SDS011;67231;59.144;37.934;2023-07-16T08:24:27;3.15;;;2.47;;
77868;SDS011;67231;59.144;37.934;2023-07-16T08:26:53;3.60;;;2.30;;
77868;SDS011;67231;59.144;37.934;2023-07-16T08:29:20;3.63;;;2.65;;
77868;SDS011;67231;59.144;37.934;2023-07-16T08:31:46;2.83;;;2.50;;
77868;SDS011;67231;59.144;37.934;2023-07-16T08:34:12;3.17;;;2.45;;
77868;SDS011;67231;59.144;37.934;2023-07-16T08:36:38;5.00;;;2.30;;
77868;SDS011;67231;59.144;37.934;2023-07-16T08:39:05;14.85;;;2.90;;
77868;SDS011;67231;59.144;37.934;2023-07-16T08:41:33;10.15;;;3.25;;
77868;SDS011;67231;59.144;37.934;2023-07-16T08:44:00;6.13;;;2.95;;
77868;SDS011;67231;59.144;37.934;2023-07-16T08:46:27;3.55;;;2.20;;
77868;SDS011;67231;59.144;37.934;2023-07-16T08:48:53;3.15;;;2.58;;
77868;SDS011;67231;59.144;37.934;2023-07-16T08:51:20;4.85;;;3.08;;
77868;SDS011;67231;59.144;37.934;2023-07-16T08:53:48;6.03;;;3.00;;
77868;SDS011;67231;59.144;37.934;2023-07-16T08:56:14;4.57;;;3.15;;
77868;SDS011;67231;59.144;37.934;2023-07-16T08:58:41;4.15;;;2.88;;
77868;SDS011;67231;59.144;37.934;2023-07-16T09:01:10;3.80;;;2.80;;
77868;SDS011;67231;59.144;37.934;2023-07-16T09:03:38;3.25;;;2.60;;
77868;SDS011;67231;59.144;37.934;2023-07-16T09:06:05;4.00;;;2.90;;
77868;SDS011;67231;59.144;37.934;2023-07-16T09:08:31;4.82;;;2.90;;
77868;SDS011;67231;59.144;37.934;2023-07-16T09:10:58;4.70;;;2.70;;
77868;SDS011;67231;59.144;37.934;2023-07-16T09:13:24;3.38;;;2.40;;
77868;SDS011;67231;59.144;37.934;2023-07-16T09:15:54;7.72;;;4.45;;
77868;SDS011;67231;59.144;37.934;2023-07-16T09:18:23;4.45;;;2.97;;
77868;SDS011;67231;59.144;37.934;2023-07-16T09:20:54;5.20;;;3.10;;
77868;SDS011;67231;59.144;37.934;2023-07-16T09:23:26;4.32;;;3.00;;
77868;SDS011;67231;59.144;37.934;2023-07-16T09:25:53;4.55;;;2.78;;
77868;SDS011;67231;59.144;37.934;2023-07-16T09:28:21;4.13;;;2.67;;
77868;SDS011;67231;59.144;37.934;2023-07-16T09:30:47;4.63;;;2.80;;
77868;SDS011;67231;59.144;37.934;2023-07-16T09:33:21;5.63;;;3.20;;
77868;SDS011;67231;59.144;37.934;2023-07-16T09:35:49;5.75;;;3.13;;
77868;SDS011;67231;59.144;37.934;2023-07-16T09:38:16;6.97;;;2.67;;
77868;SDS011;67231;59.144;37.934;2023-07-16T09:40:44;3.00;;;2.40;;
77868;SDS011;67231;59.144;37.934;2023-07-16T09:43:11;3.42;;;2.83;;
77868;SDS011;67231;59.144;37.934;2023-07-16T09:45:39;3.45;;;2.70;;
77868;SDS011;67231;59.144;37.934;2023-07-16T09:48:06;4.30;;;2.70;;
77868;SDS011;67231;59.144;37.934;2023-07-16T09:50:33;5.20;;;2.90;;
77868;SDS011;67231;59.144;37.934;2023-07-16T09:53:01;3.67;;;2.63;;
77868;SDS011;67231;59.144;37.934;2023-07-16T09:55:30;3.95;;;2.95;;
77868;SDS011;67231;59.144;37.934;2023-07-16T09:57:59;4.70;;;2.80;;
77868;SDS011;67231;59.144;37.934;2023-07-16T10:00:29;5.30;;;2.97;;
77868;SDS011;67231;59.144;37.934;2023-07-16T10:02:56;6.82;;;2.72;;
77868;SDS011;67231;59.144;37.934;2023-07-16T10:05:24;5.22;;;3.00;;
77868;SDS011;67231;59.144;37.934;2023-07-16T10:07:53;4.22;;;2.97;;
77868;SDS011;67231;59.144;37.934;2023-07-16T10:13:07;3.88;;;2.80;;
77868;SDS011;67231;59.144;37.934;2023-07-16T10:15:34;3.70;;;2.50;;
77868;SDS011;67231;59.144;37.934;2023-07-16T10:18:00;4.25;;;2.50;;
77868;SDS011;67231;59.144;37.934;2023-07-16T10:20:34;4.82;;;2.80;;
77868;SDS011;67231;59.144;37.934;2023-07-16T10:23:12;5.65;;;3.17;;
77868;SDS011;67231;59.144;37.934;2023-07-16T10:25:40;3.33;;;2.55;;
77868;SDS011;67231;59.144;37.934;2023-07-16T10:28:23;3.90;;;2.60;;
77868;SDS011;67231;59.144;37.934;2023-07-16T10:30:50;4.15;;;2.53;;
77868;SDS011;67231;59.144;37.934;2023-07-16T10:33:16;6.85;;;3.35;;
77868;SDS011;67231;59.144;37.934;2023-07-16T10:35:45;4.93;;;2.45;;
77868;SDS011;67231;59.144;37.934;2023-07-16T10:38:11;4.00;;;2.65;;
77868;SDS011;67231;59.144;37.934;2023-07-16T10:40:44;5.63;;;2.60;;
77868;SDS011;67231;59.144;37.934;2023-07-16T10:43:12;6.32;;;2.60;;
77868;SDS011;67231;59.144;37.934;2023-07-16T10:45:38;4.35;;;2.47;;
77868;SDS011;67231;59.144;37.934;2023-07-16T10:48:05;3.30;;;2.15;;
77868;SDS011;67231;59.144;37.934;2023-07-16T10:50:32;3.08;;;2.50;;
77868;SDS011;67231;59.144;37.934;2023-07-16T10:53:00;3.22;;;2.50;;
77868;SDS011;67231;59.144;37.934;2023-07-16T10:55:28;5.35;;;2.22;;
77868;SDS011;67231;59.144;37.934;2023-07-16T10:57:55;5.45;;;2.75;;
77868;SDS011;67231;59.144;37.934;2023-07-16T11:00:22;3.72;;;2.33;;
77868;SDS011;67231;59.144;37.934;2023-07-16T11:02:49;3.17;;;2.40;;
77868;SDS011;67231;59.144;37.934;2023-07-16T11:05:17;5.18;;;2.42;;
77868;SDS011;67231;59.144;37.934;2023-07-16T11:07:47;4.25;;;2.58;;
77868;SDS011;67231;59.144;37.934;2023-07-16T11:10:15;3.83;;;2.78;;
77868;SDS011;67231;59.144;37.934;2023-07-16T11:12:43;5.00;;;2.47;;
77868;SDS011;67231;59.144;37.934;2023-07-16T11:15:10;3.80;;;3.13;;
77868;SDS011;67231;59.144;37.934;2023-07-16T11:17:37;5.40;;;2.90;;
77868;SDS011;67231;59.144;37.934;2023-07-16T11:20:08;4.70;;;2.33;;
77868;SDS011;67231;59.144;37.934;2023-07-16T11:22:36;4.70;;;2.50;;
77868;SDS011;67231;59.144;37.934;2023-07-16T11:25:10;3.33;;;2.45;;
77868;SDS011;67231;59.144;37.934;2023-07-16T11:30:06;4.05;;;2.30;;
77868;SDS011;67231;59.144;37.934;2023-07-16T11:32:43;4.15;;;2.53;;
77868;SDS011;67231;59.144;37.934;2023-07-16T11:35:16;4.30;;;2.70;;
77868;SDS011;67231;59.144;37.934;2023-07-16T11:37:44;7.28;;;4.65;;
77868;SDS011;67231;59.144;37.934;2023-07-16T11:40:14;5.20;;;3.10;;
77868;SDS011;67231;59.144;37.934;2023-07-16T11:42:43;5.32;;;2.75;;
77868;SDS011;67231;59.144;37.934;2023-07-16T11:45:16;6.95;;;2.78;;
77868;SDS011;67231;59.144;37.934;2023-07-16T11:47:43;5.95;;;2.50;;
77868;SDS011;67231;59.144;37.934;2023-07-16T11:50:10;5.28;;;2.88;;
77868;SDS011;67231;59.144;37.934;2023-07-16T11:52:38;3.78;;;2.40;;
77868;SDS011;67231;59.144;37.934;2023-07-16T11:55:05;5.88;;;2.47;;
77868;SDS011;67231;59.144;37.934;2023-07-16T11:57:34;5.72;;;2.80;;
77868;SDS011;67231;59.144;37.934;2023-07-16T12:00:02;4.13;;;2.80;;
77868;SDS011;67231;59.144;37.934;2023-07-16T12:02:35;6.50;;;2.67;;
77868;SDS011;67231;59.144;37.934;2023-07-16T12:05:01;4.05;;;2.40;;
77868;SDS011;67231;59.144;37.934;2023-07-16T12:07:32;5.60;;;2.80;;
77868;SDS011;67231;59.144;37.934;2023-07-16T12:10:03;3.70;;;2.63;;
77868;SDS011;67231;59.144;37.934;2023-07-16T12:12:34;10.60;;;2.88;;
77868;SDS011;67231;59.144;37.934;2023-07-16T12:15:09;5.07;;;2.60;;
77868;SDS011;67231;59.144;37.934;2023-07-16T12:17:35;6.60;;;3.10;;
77868;SDS011;67231;59.144;37.934;2023-07-16T12:20:02;6.75;;;2.80;;
77868;SDS011;67231;59.144;37.934;2023-07-16T12:22:32;5.78;;;2.80;;
77868;SDS011;67231;59.144;37.934;2023-07-16T12:24:59;6.15;;;2.80;;
77868;SDS011;67231;59.144;37.934;2023-07-16T12:27:26;7.30;;;3.25;;
77868;SDS011;67231;59.144;37.934;2023-07-16T12:29:52;6.53;;;2.90;;
77868;SDS011;67231;59.144;37.934;2023-07-16T12:32:19;8.57;;;3.03;;
77868;SDS011;67231;59.144;37.934;2023-07-16T12:34:46;7.10;;;2.85;;
77868;SDS011;67231;59.144;37.934;2023-07-16T12:37:13;3.95;;;2.80;;
77868;SDS011;67231;59.144;37.934;2023-07-16T12:39:39;8.20;;;3.17;;
77868;SDS011;67231;59.144;37.934;2023-07-16T12:42:05;6.22;;;2.90;;
77868;SDS011;67231;59.144;37.934;2023-07-16T12:44:32;10.05;;;2.95;;
77868;SDS011;67231;59.144;37.934;2023-07-16T12:46:59;8.90;;;3.35;;
77868;SDS011;67231;59.144;37.934;2023-07-16T12:49:25;4.63;;;2.67;;
77868;SDS011;67231;59.144;37.934;2023-07-16T12:51:51;7.32;;;3.05;;
77868;SDS011;67231;59.144;37.934;2023-07-16T12:54:18;3.42;;;2.60;;
77868;SDS011;67231;59.144;37.934;2023-07-16T12:56:44;5.57;;;2.75;;
77868;SDS011;67231;59.144;37.934;2023-07-16T12:59:10;7.00;;;2.50;;
77868;SDS011;67231;59.144;37.934;2023-07-16T13:01:36;5.55;;;2.80;;
77868;SDS011;67231;59.144;37.934;2023-07-16T13:04:03;4.47;;;2.50;;
77868;SDS011;67231;59.144;37.934;2023-07-16T13:06:29;4.05;;;2.75;;
77868;SDS011;67231;59.144;37.934;2023-07-16T13:08:56;3.70;;;2.85;;
77868;SDS011;67231;59.144;37.934;2023-07-16T13:11:24;4.28;;;2.95;;
77868;SDS011;67231;59.144;37.934;2023-07-16T13:13:50;3.67;;;2.70;;
77868;SDS011;67231;59.144;37.934;2023-07-16T13:16:17;3.83;;;2.85;;
77868;SDS011;67231;59.144;37.934;2023-07-16T13:18:44;6.30;;;3.10;;
77868;SDS011;67231;59.144;37.934;2023-07-16T13:21:10;8.32;;;3.28;;
77868;SDS011;67231;59.144;37.934;2023-07-16T13:23:36;6.63;;;3.95;;
77868;SDS011;67231;59.144;37.934;2023-07-16T13:26:03;6.10;;;2.78;;
77868;SDS011;67231;59.144;37.934;2023-07-16T13:28:29;4.47;;;2.90;;
77868;SDS011;67231;59.144;37.934;2023-07-16T13:30:56;3.97;;;2.80;;
77868;SDS011;67231;59.144;37.934;2023-07-16T13:33:22;3.53;;;2.80;;
77868;SDS011;67231;59.144;37.934;2023-07-16T13:35:49;5.63;;;3.10;;
77868;SDS011;67231;59.144;37.934;2023-07-16T13:38:15;11.00;;;3.53;;
77868;SDS011;67231;59.144;37.934;2023-07-16T13:40:41;5.05;;;2.88;;
77868;SDS011;67231;59.144;37.934;2023-07-16T13:43:07;6.38;;;3.00;;
77868;SDS011;67231;59.144;37.934;2023-07-16T13:45:34;6.60;;;3.10;;
77868;SDS011;67231;59.144;37.934;2023-07-16T13:48:00;8.20;;;2.78;;
77868;SDS011;67231;59.144;37.934;2023-07-16T13:50:26;5.90;;;3.35;;
77868;SDS011;67231;59.144;37.934;2023-07-16T13:52:53;4.18;;;2.80;;
77868;SDS011;67231;59.144;37.934;2023-07-16T13:55:21;5.05;;;2.97;;
77868;SDS011;67231;59.144;37.934;2023-07-16T13:57:48;4.22;;;2.60;;
77868;SDS011;67231;59.144;37.934;2023-07-16T14:00:14;7.32;;;3.13;;
77868;SDS011;67231;59.144;37.934;2023-07-16T14:02:42;6.35;;;2.92;;
77868;SDS011;67231;59.144;37.934;2023-07-16T14:05:09;8.75;;;2.95;;
77868;SDS011;67231;59.144;37.934;2023-07-16T14:07:36;7.40;;;2.85;;
77868;SDS011;67231;59.144;37.934;2023-07-16T14:10:02;5.65;;;2.80;;
77868;SDS011;67231;59.144;37.934;2023-07-16T14:12:30;6.50;;;2.90;;
77868;SDS011;67231;59.144;37.934;2023-07-16T14:14:56;4.50;;;2.88;;
77868;SDS011;67231;59.144;37.934;2023-07-16T14:17:22;5.93;;;3.25;;
77868;SDS011;67231;59.144;37.934;2023-07-16T14:19:49;5.30;;;3.17;;
77868;SDS011;67231;59.144;37.934;2023-07-16T14:22:15;4.82;;;2.35;;
77868;SDS011;67231;59.144;37.934;2023-07-16T14:24:42;4.30;;;2.30;;
77868;SDS011;67231;59.144;37.934;2023-07-16T14:27:08;3.78;;;2.42;;
77868;SDS011;67231;59.144;37.934;2023-07-16T14:29:35;3.63;;;2.80;;
77868;SDS011;67231;59.144;37.934;2023-07-16T14:32:01;4.03;;;2.63;;
77868;SDS011;67231;59.144;37.934;2023-07-16T14:34:29;5.40;;;2.70;;
77868;SDS011;67231;59.144;37.934;2023-07-16T14:36:55;6.63;;;2.75;;
77868;SDS011;67231;59.144;37.934;2023-07-16T14:39:22;6.05;;;2.90;;
77868;SDS011;67231;59.144;37.934;2023-07-16T14:41:48;4.28;;;2.95;;
77868;SDS011;67231;59.144;37.934;2023-07-16T14:44:14;6.45;;;2.70;;
77868;SDS011;67231;59.144;37.934;2023-07-16T14:46:41;7.18;;;2.83;;